sensor_id;sensor_type;location;lat;lon;timestamp;temperature;humidity
4530;DHT22;2277;51.626;7.516;2024-01-27T00:01:47;6.60;99.90
4530;DHT22;2277;51.626;7.516;2024-01-27T00:04:13;6.60;99.90
4530;DHT22;2277;51.626;7.516;2024-01-27T00:06:38;6.60;99.90
4530;DHT22;2277;51.626;7.516;2024-01-27T00:09:04;6.50;99.90
4530;DHT22;2277;51.626;7.516;2024-01-27T00:11:31;6.50;99.90
4530;DHT22;2277;51.626;7.516;2024-01-27T00:13:57;6.60;99.90
4530;DHT22;2277;51.626;7.516;2024-01-27T00:16:24;6.50;99.90
4530;DHT22;2277;51.626;7.516;2024-01-27T00:18:50;6.50;99.90
4530;DHT22;2277;51.626;7.516;2024-01-27T00:21:15;6.50;99.90
4530;DHT22;2277;51.626;7.516;2024-01-27T00:23:41;6.50;99.90
4530;DHT22;2277;51.626;7.516;2024-01-27T00:26:07;6.40;99.90
4530;DHT22;2277;51.626;7.516;2024-01-27T00:28:32;6.50;99.90
4530;DHT22;2277;51.626;7.516;2024-01-27T00:30:58;6.40;99.90
4530;DHT22;2277;51.626;7.516;2024-01-27T00:33:23;6.40;99.90
4530;DHT22;2277;51.626;7.516;2024-01-27T00:35:49;6.50;99.90
4530;DHT22;2277;51.626;7.516;2024-01-27T00:38:14;6.40;99.90
4530;DHT22;2277;51.626;7.516;2024-01-27T00:40:40;6.40;99.90
4530;DHT22;2277;51.626;7.516;2024-01-27T00:43:06;6.40;99.90
4530;DHT22;2277;51.626;7.516;2024-01-27T00:45:32;6.40;99.90
4530;DHT22;2277;51.626;7.516;2024-01-27T00:47:57;6.40;99.90
4530;DHT22;2277;51.626;7.516;2024-01-27T00:50:23;6.30;99.90
4530;DHT22;2277;51.626;7.516;2024-01-27T00:52:49;6.40;99.90
4530;DHT22;2277;51.626;7.516;2024-01-27T00:55:15;6.40;99.90
4530;DHT22;2277;51.626;7.516;2024-01-27T00:57:41;6.40;99.90
4530;DHT22;2277;51.626;7.516;2024-01-27T01:00:10;6.30;99.90
4530;DHT22;2277;51.626;7.516;2024-01-27T01:02:37;6.30;99.90
4530;DHT22;2277;51.626;7.516;2024-01-27T01:05:03;6.30;99.90
4530;DHT22;2277;51.626;7.516;2024-01-27T01:07:32;6.30;99.90
4530;DHT22;2277;51.626;7.516;2024-01-27T01:09:58;6.20;99.90
4530;DHT22;2277;51.626;7.516;2024-01-27T01:12:24;6.20;99.90
4530;DHT22;2277;51.626;7.516;2024-01-27T01:14:53;6.20;99.90
4530;DHT22;2277;51.626;7.516;2024-01-27T01:17:19;6.20;99.90
4530;DHT22;2277;51.626;7.516;2024-01-27T01:19:44;6.20;99.90
4530;DHT22;2277;51.626;7.516;2024-01-27T01:22:10;6.20;99.90
4530;DHT22;2277;51.626;7.516;2024-01-27T01:24:36;6.10;99.90
4530;DHT22;2277;51.626;7.516;2024-01-27T01:27:01;6.10;99.90
4530;DHT22;2277;51.626;7.516;2024-01-27T01:29:28;6.10;99.90
4530;DHT22;2277;51.626;7.516;2024-01-27T01:31:54;6.10;99.90
4530;DHT22;2277;51.626;7.516;2024-01-27T01:34:19;6.10;99.90
4530;DHT22;2277;51.626;7.516;2024-01-27T01:36:45;6.10;99.90
4530;DHT22;2277;51.626;7.516;2024-01-27T01:39:11;6.10;99.90
4530;DHT22;2277;51.626;7.516;2024-01-27T01:41:38;6.10;99.90
4530;DHT22;2277;51.626;7.516;2024-01-27T01:44:04;6.10;99.90
4530;DHT22;2277;51.626;7.516;2024-01-27T01:46:29;6.10;99.90
4530;DHT22;2277;51.626;7.516;2024-01-27T01:48:55;6.10;99.90
4530;DHT22;2277;51.626;7.516;2024-01-27T01:51:22;6.10;99.90
4530;DHT22;2277;51.626;7.516;2024-01-27T01:53:48;6.10;99.90
4530;DHT22;2277;51.626;7.516;2024-01-27T01:56:15;6.00;99.90
4530;DHT22;2277;51.626;7.516;2024-01-27T01:58:41;6.00;99.90
4530;DHT22;2277;51.626;7.516;2024-01-27T02:01:07;6.00;99.90
4530;DHT22;2277;51.626;7.516;2024-01-27T02:03:33;6.00;99.90
4530;DHT22;2277;51.626;7.516;2024-01-27T02:05:58;5.90;99.90
4530;DHT22;2277;51.626;7.516;2024-01-27T02:08:24;5.80;99.90
4530;DHT22;2277;51.626;7.516;2024-01-27T02:10:49;5.80;99.90
4530;DHT22;2277;51.626;7.516;2024-01-27T02:13:19;5.80;99.90
4530;DHT22;2277;51.626;7.516;2024-01-27T02:15:46;5.80;99.90
4530;DHT22;2277;51.626;7.516;2024-01-27T02:18:12;5.80;99.90
4530;DHT22;2277;51.626;7.516;2024-01-27T02:20:38;5.80;99.90
4530;DHT22;2277;51.626;7.516;2024-01-27T02:23:06;5.80;99.90
4530;DHT22;2277;51.626;7.516;2024-01-27T02:25:33;5.80;99.90
4530;DHT22;2277;51.626;7.516;2024-01-27T02:27:59;5.80;99.90
4530;DHT22;2277;51.626;7.516;2024-01-27T02:30:25;5.90;99.90
4530;DHT22;2277;51.626;7.516;2024-01-27T02:32:51;5.80;99.90
4530;DHT22;2277;51.626;7.516;2024-01-27T02:35:17;5.80;99.90
4530;DHT22;2277;51.626;7.516;2024-01-27T02:37:43;5.70;99.90
4530;DHT22;2277;51.626;7.516;2024-01-27T02:40:09;5.60;99.90
4530;DHT22;2277;51.626;7.516;2024-01-27T02:42:37;5.60;99.90
4530;DHT22;2277;51.626;7.516;2024-01-27T02:45:04;5.60;99.90
4530;DHT22;2277;51.626;7.516;2024-01-27T02:47:29;5.60;99.90
4530;DHT22;2277;51.626;7.516;2024-01-27T02:49:55;5.50;99.90
4530;DHT22;2277;51.626;7.516;2024-01-27T02:52:21;5.60;99.90
4530;DHT22;2277;51.626;7.516;2024-01-27T02:54:47;5.60;99.90
4530;DHT22;2277;51.626;7.516;2024-01-27T02:57:12;5.60;99.90
4530;DHT22;2277;51.626;7.516;2024-01-27T02:59:38;5.60;99.90
4530;DHT22;2277;51.626;7.516;2024-01-27T03:02:05;5.60;99.90
4530;DHT22;2277;51.626;7.516;2024-01-27T03:04:31;5.60;99.90
4530;DHT22;2277;51.626;7.516;2024-01-27T03:06:56;5.60;99.90
4530;DHT22;2277;51.626;7.516;2024-01-27T03:09:22;5.50;99.90
4530;DHT22;2277;51.626;7.516;2024-01-27T03:11:47;5.50;99.90
4530;DHT22;2277;51.626;7.516;2024-01-27T03:14:13;5.50;99.90
4530;DHT22;2277;51.626;7.516;2024-01-27T03:16:39;5.60;99.90
4530;DHT22;2277;51.626;7.516;2024-01-27T03:19:04;5.60;99.90
4530;DHT22;2277;51.626;7.516;2024-01-27T03:21:30;5.50;99.90
4530;DHT22;2277;51.626;7.516;2024-01-27T03:23:55;5.60;99.90
4530;DHT22;2277;51.626;7.516;2024-01-27T03:26:21;5.60;99.90
4530;DHT22;2277;51.626;7.516;2024-01-27T03:28:47;5.50;99.90
4530;DHT22;2277;51.626;7.516;2024-01-27T03:31:12;5.50;99.90
4530;DHT22;2277;51.626;7.516;2024-01-27T03:33:38;5.50;99.90
4530;DHT22;2277;51.626;7.516;2024-01-27T03:36:09;5.50;99.90
4530;DHT22;2277;51.626;7.516;2024-01-27T03:38:35;5.50;99.90
4530;DHT22;2277;51.626;7.516;2024-01-27T03:41:02;5.50;99.90
4530;DHT22;2277;51.626;7.516;2024-01-27T03:43:27;5.50;99.90
4530;DHT22;2277;51.626;7.516;2024-01-27T03:45:53;5.50;99.90
4530;DHT22;2277;51.626;7.516;2024-01-27T03:48:18;5.50;99.90
4530;DHT22;2277;51.626;7.516;2024-01-27T03:50:44;5.50;99.90
4530;DHT22;2277;51.626;7.516;2024-01-27T03:53:10;5.50;99.90
4530;DHT22;2277;51.626;7.516;2024-01-27T03:55:38;5.40;99.90
4530;DHT22;2277;51.626;7.516;2024-01-27T03:58:04;5.40;99.90
4530;DHT22;2277;51.626;7.516;2024-01-27T04:00:29;5.40;99.90
4530;DHT22;2277;51.626;7.516;2024-01-27T04:03:00;5.40;99.90
4530;DHT22;2277;51.626;7.516;2024-01-27T04:05:29;5.40;99.90
4530;DHT22;2277;51.626;7.516;2024-01-27T04:07:55;5.40;99.90
4530;DHT22;2277;51.626;7.516;2024-01-27T04:10:21;5.40;99.90
4530;DHT22;2277;51.626;7.516;2024-01-27T04:12:47;5.40;99.90
4530;DHT22;2277;51.626;7.516;2024-01-27T04:15:13;5.40;99.90
4530;DHT22;2277;51.626;7.516;2024-01-27T04:17:40;5.40;99.90
4530;DHT22;2277;51.626;7.516;2024-01-27T04:20:06;5.30;99.90
4530;DHT22;2277;51.626;7.516;2024-01-27T04:22:35;5.40;99.90
4530;DHT22;2277;51.626;7.516;2024-01-27T04:25:01;5.40;99.90
4530;DHT22;2277;51.626;7.516;2024-01-27T04:27:27;5.30;99.90
4530;DHT22;2277;51.626;7.516;2024-01-27T04:29:53;5.40;99.90
4530;DHT22;2277;51.626;7.516;2024-01-27T04:32:19;5.30;99.90
4530;DHT22;2277;51.626;7.516;2024-01-27T04:34:44;5.30;99.90
4530;DHT22;2277;51.626;7.516;2024-01-27T04:37:10;5.40;99.90
4530;DHT22;2277;51.626;7.516;2024-01-27T04:39:37;5.20;99.90
4530;DHT22;2277;51.626;7.516;2024-01-27T04:42:02;5.20;99.90
4530;DHT22;2277;51.626;7.516;2024-01-27T04:44:28;5.20;99.90
4530;DHT22;2277;51.626;7.516;2024-01-27T04:46:53;5.30;99.90
4530;DHT22;2277;51.626;7.516;2024-01-27T04:49:19;5.30;99.90
4530;DHT22;2277;51.626;7.516;2024-01-27T04:51:45;5.20;99.90
4530;DHT22;2277;51.626;7.516;2024-01-27T04:54:10;5.20;99.90
4530;DHT22;2277;51.626;7.516;2024-01-27T04:56:36;5.20;99.90
4530;DHT22;2277;51.626;7.516;2024-01-27T04:59:02;5.20;99.90
4530;DHT22;2277;51.626;7.516;2024-01-27T05:01:28;5.10;99.90
4530;DHT22;2277;51.626;7.516;2024-01-27T05:03:53;5.10;99.90
4530;DHT22;2277;51.626;7.516;2024-01-27T05:06:19;5.20;99.90
4530;DHT22;2277;51.626;7.516;2024-01-27T05:08:44;5.20;99.90
4530;DHT22;2277;51.626;7.516;2024-01-27T05:11:10;5.20;99.90
4530;DHT22;2277;51.626;7.516;2024-01-27T05:13:36;5.20;99.90
4530;DHT22;2277;51.626;7.516;2024-01-27T05:16:03;5.20;99.90
4530;DHT22;2277;51.626;7.516;2024-01-27T05:18:29;5.20;99.90
4530;DHT22;2277;51.626;7.516;2024-01-27T05:20:54;5.20;99.90
4530;DHT22;2277;51.626;7.516;2024-01-27T05:23:20;5.10;99.90
4530;DHT22;2277;51.626;7.516;2024-01-27T05:25:45;5.10;99.90
4530;DHT22;2277;51.626;7.516;2024-01-27T05:28:11;5.10;99.90
4530;DHT22;2277;51.626;7.516;2024-01-27T05:30:37;5.10;99.90
4530;DHT22;2277;51.626;7.516;2024-01-27T05:33:02;5.10;99.90
4530;DHT22;2277;51.626;7.516;2024-01-27T05:35:28;5.10;99.90
4530;DHT22;2277;51.626;7.516;2024-01-27T05:37:54;5.10;99.90
4530;DHT22;2277;51.626;7.516;2024-01-27T05:40:19;4.90;99.90
4530;DHT22;2277;51.626;7.516;2024-01-27T05:42:45;4.90;99.90
4530;DHT22;2277;51.626;7.516;2024-01-27T05:45:11;4.90;99.90
4530;DHT22;2277;51.626;7.516;2024-01-27T05:47:37;4.90;99.90
4530;DHT22;2277;51.626;7.516;2024-01-27T05:50:03;5.00;99.90
4530;DHT22;2277;51.626;7.516;2024-01-27T05:52:29;5.00;99.90
4530;DHT22;2277;51.626;7.516;2024-01-27T05:54:55;5.00;99.90
4530;DHT22;2277;51.626;7.516;2024-01-27T05:57:21;5.00;99.90
4530;DHT22;2277;51.626;7.516;2024-01-27T05:59:46;4.90;99.90
4530;DHT22;2277;51.626;7.516;2024-01-27T06:02:12;4.90;99.90
4530;DHT22;2277;51.626;7.516;2024-01-27T06:04:37;4.90;99.90
4530;DHT22;2277;51.626;7.516;2024-01-27T06:07:03;4.70;99.90
4530;DHT22;2277;51.626;7.516;2024-01-27T06:09:29;4.70;99.90
4530;DHT22;2277;51.626;7.516;2024-01-27T06:11:57;4.60;99.90
4530;DHT22;2277;51.626;7.516;2024-01-27T06:14:23;4.50;99.90
4530;DHT22;2277;51.626;7.516;2024-01-27T06:16:49;4.60;99.90
4530;DHT22;2277;51.626;7.516;2024-01-27T06:19:16;4.50;99.90
4530;DHT22;2277;51.626;7.516;2024-01-27T06:21:42;4.40;99.90
4530;DHT22;2277;51.626;7.516;2024-01-27T06:24:07;4.50;99.90
4530;DHT22;2277;51.626;7.516;2024-01-27T06:26:33;4.30;99.90
4530;DHT22;2277;51.626;7.516;2024-01-27T06:28:59;4.20;99.90
4530;DHT22;2277;51.626;7.516;2024-01-27T06:31:25;4.30;99.90
4530;DHT22;2277;51.626;7.516;2024-01-27T06:33:51;4.40;99.90
4530;DHT22;2277;51.626;7.516;2024-01-27T06:36:16;4.40;99.90
4530;DHT22;2277;51.626;7.516;2024-01-27T06:38:42;4.50;99.90
4530;DHT22;2277;51.626;7.516;2024-01-27T06:41:07;4.60;99.90
4530;DHT22;2277;51.626;7.516;2024-01-27T06:43:33;4.60;99.90
4530;DHT22;2277;51.626;7.516;2024-01-27T06:45:59;4.50;99.90
4530;DHT22;2277;51.626;7.516;2024-01-27T06:48:24;4.60;99.90
4530;DHT22;2277;51.626;7.516;2024-01-27T06:50:53;4.60;99.90
4530;DHT22;2277;51.626;7.516;2024-01-27T06:53:18;4.50;99.90
4530;DHT22;2277;51.626;7.516;2024-01-27T06:55:45;4.50;99.90
4530;DHT22;2277;51.626;7.516;2024-01-27T06:58:10;4.40;99.90
4530;DHT22;2277;51.626;7.516;2024-01-27T07:00:36;4.50;99.90
4530;DHT22;2277;51.626;7.516;2024-01-27T07:03:01;4.60;99.90
4530;DHT22;2277;51.626;7.516;2024-01-27T07:05:28;4.50;99.90
4530;DHT22;2277;51.626;7.516;2024-01-27T07:07:53;4.40;99.90
4530;DHT22;2277;51.626;7.516;2024-01-27T07:10:19;4.30;99.90
4530;DHT22;2277;51.626;7.516;2024-01-27T07:12:45;4.30;99.90
4530;DHT22;2277;51.626;7.516;2024-01-27T07:15:10;4.30;99.90
4530;DHT22;2277;51.626;7.516;2024-01-27T07:17:36;4.30;99.90
4530;DHT22;2277;51.626;7.516;2024-01-27T07:20:01;4.30;99.90
4530;DHT22;2277;51.626;7.516;2024-01-27T07:22:27;4.30;99.90
4530;DHT22;2277;51.626;7.516;2024-01-27T07:24:53;4.40;99.90
4530;DHT22;2277;51.626;7.516;2024-01-27T07:27:19;4.40;99.90
4530;DHT22;2277;51.626;7.516;2024-01-27T07:29:44;4.40;99.90
4530;DHT22;2277;51.626;7.516;2024-01-27T07:32:10;4.50;99.90
4530;DHT22;2277;51.626;7.516;2024-01-27T07:34:43;4.50;99.90
4530;DHT22;2277;51.626;7.516;2024-01-27T07:37:09;4.40;99.90
4530;DHT22;2277;51.626;7.516;2024-01-27T07:39:35;4.40;99.90
4530;DHT22;2277;51.626;7.516;2024-01-27T07:42:00;4.40;99.90
4530;DHT22;2277;51.626;7.516;2024-01-27T07:44:27;4.40;99.90
4530;DHT22;2277;51.626;7.516;2024-01-27T07:46:53;4.50;99.90
4530;DHT22;2277;51.626;7.516;2024-01-27T07:49:18;4.50;99.90
4530;DHT22;2277;51.626;7.516;2024-01-27T07:51:44;4.60;99.90
4530;DHT22;2277;51.626;7.516;2024-01-27T07:54:10;4.60;99.90
4530;DHT22;2277;51.626;7.516;2024-01-27T07:56:37;4.60;99.90
4530;DHT22;2277;51.626;7.516;2024-01-27T07:59:02;4.70;99.90
4530;DHT22;2277;51.626;7.516;2024-01-27T08:01:28;4.60;99.90
4530;DHT22;2277;51.626;7.516;2024-01-27T08:03:54;4.70;99.90
4530;DHT22;2277;51.626;7.516;2024-01-27T08:06:28;4.70;99.90
4530;DHT22;2277;51.626;7.516;2024-01-27T08:08:57;4.70;99.90
4530;DHT22;2277;51.626;7.516;2024-01-27T08:11:22;4.70;99.90
4530;DHT22;2277;51.626;7.516;2024-01-27T08:13:49;4.80;99.90
4530;DHT22;2277;51.626;7.516;2024-01-27T08:16:16;4.80;99.90
4530;DHT22;2277;51.626;7.516;2024-01-27T08:18:42;4.90;99.90
4530;DHT22;2277;51.626;7.516;2024-01-27T08:21:09;5.00;99.90
4530;DHT22;2277;51.626;7.516;2024-01-27T08:23:35;5.20;99.90
4530;DHT22;2277;51.626;7.516;2024-01-27T08:26:01;5.30;99.90
4530;DHT22;2277;51.626;7.516;2024-01-27T08:28:27;5.40;99.90
4530;DHT22;2277;51.626;7.516;2024-01-27T08:30:52;5.50;99.90
4530;DHT22;2277;51.626;7.516;2024-01-27T08:33:18;5.60;99.90
4530;DHT22;2277;51.626;7.516;2024-01-27T08:35:46;5.80;99.90
4530;DHT22;2277;51.626;7.516;2024-01-27T08:38:13;6.00;99.90
4530;DHT22;2277;51.626;7.516;2024-01-27T08:40:38;6.20;99.90
4530;DHT22;2277;51.626;7.516;2024-01-27T08:43:04;6.40;99.90
4530;DHT22;2277;51.626;7.516;2024-01-27T08:45:31;6.50;99.90
4530;DHT22;2277;51.626;7.516;2024-01-27T08:47:57;6.70;99.90
4530;DHT22;2277;51.626;7.516;2024-01-27T08:50:22;6.80;99.90
4530;DHT22;2277;51.626;7.516;2024-01-27T08:52:48;6.90;99.90
4530;DHT22;2277;51.626;7.516;2024-01-27T08:55:14;7.20;99.90
4530;DHT22;2277;51.626;7.516;2024-01-27T08:57:39;7.20;99.90
4530;DHT22;2277;51.626;7.516;2024-01-27T09:00:05;7.40;99.90
4530;DHT22;2277;51.626;7.516;2024-01-27T09:02:31;7.50;99.90
4530;DHT22;2277;51.626;7.516;2024-01-27T09:04:57;7.60;99.90
4530;DHT22;2277;51.626;7.516;2024-01-27T09:07:23;7.70;99.90
4530;DHT22;2277;51.626;7.516;2024-01-27T09:09:49;7.90;99.90
4530;DHT22;2277;51.626;7.516;2024-01-27T09:12:14;8.10;99.90
4530;DHT22;2277;51.626;7.516;2024-01-27T09:14:40;8.20;99.90
4530;DHT22;2277;51.626;7.516;2024-01-27T09:17:06;8.50;99.90
4530;DHT22;2277;51.626;7.516;2024-01-27T09:19:31;8.70;99.90
4530;DHT22;2277;51.626;7.516;2024-01-27T09:21:58;8.80;99.90
4530;DHT22;2277;51.626;7.516;2024-01-27T09:24:23;8.90;99.90
4530;DHT22;2277;51.626;7.516;2024-01-27T09:26:49;9.00;99.90
4530;DHT22;2277;51.626;7.516;2024-01-27T09:29:14;9.10;99.90
4530;DHT22;2277;51.626;7.516;2024-01-27T09:31:40;9.30;99.90
4530;DHT22;2277;51.626;7.516;2024-01-27T09:34:06;9.50;99.90
4530;DHT22;2277;51.626;7.516;2024-01-27T09:36:31;9.60;99.90
4530;DHT22;2277;51.626;7.516;2024-01-27T09:38:57;9.70;99.90
4530;DHT22;2277;51.626;7.516;2024-01-27T09:41:32;9.70;99.90
4530;DHT22;2277;51.626;7.516;2024-01-27T09:44:01;9.90;99.90
4530;DHT22;2277;51.626;7.516;2024-01-27T09:46:29;10.10;99.90
4530;DHT22;2277;51.626;7.516;2024-01-27T09:48:55;10.20;99.90
4530;DHT22;2277;51.626;7.516;2024-01-27T09:51:21;10.30;99.90
4530;DHT22;2277;51.626;7.516;2024-01-27T09:53:48;10.30;99.90
4530;DHT22;2277;51.626;7.516;2024-01-27T09:56:15;10.40;99.90
4530;DHT22;2277;51.626;7.516;2024-01-27T09:58:43;10.60;99.90
4530;DHT22;2277;51.626;7.516;2024-01-27T10:01:10;10.80;99.90
4530;DHT22;2277;51.626;7.516;2024-01-27T10:03:36;11.00;99.90
4530;DHT22;2277;51.626;7.516;2024-01-27T10:06:04;11.10;99.90
4530;DHT22;2277;51.626;7.516;2024-01-27T10:08:32;11.30;99.90
4530;DHT22;2277;51.626;7.516;2024-01-27T10:10:58;11.40;99.90
4530;DHT22;2277;51.626;7.516;2024-01-27T10:13:24;11.60;99.90
4530;DHT22;2277;51.626;7.516;2024-01-27T10:16:03;11.70;99.90
4530;DHT22;2277;51.626;7.516;2024-01-27T10:18:29;11.80;99.90
4530;DHT22;2277;51.626;7.516;2024-01-27T10:20:55;11.90;99.90
4530;DHT22;2277;51.626;7.516;2024-01-27T10:23:20;12.20;99.90
4530;DHT22;2277;51.626;7.516;2024-01-27T10:25:46;12.40;99.90
4530;DHT22;2277;51.626;7.516;2024-01-27T10:28:12;12.50;99.90
4530;DHT22;2277;51.626;7.516;2024-01-27T10:30:37;12.70;99.90
4530;DHT22;2277;51.626;7.516;2024-01-27T10:33:03;12.70;99.90
4530;DHT22;2277;51.626;7.516;2024-01-27T10:35:29;12.70;99.90
4530;DHT22;2277;51.626;7.516;2024-01-27T10:37:56;13.00;99.90
4530;DHT22;2277;51.626;7.516;2024-01-27T10:40:22;13.20;99.90
4530;DHT22;2277;51.626;7.516;2024-01-27T10:43:08;13.20;99.90
4530;DHT22;2277;51.626;7.516;2024-01-27T10:45:39;13.40;99.90
4530;DHT22;2277;51.626;7.516;2024-01-27T10:48:06;13.40;99.90
4530;DHT22;2277;51.626;7.516;2024-01-27T10:50:38;13.40;99.90
4530;DHT22;2277;51.626;7.516;2024-01-27T10:53:07;13.60;99.90
4530;DHT22;2277;51.626;7.516;2024-01-27T10:55:34;13.70;99.90
4530;DHT22;2277;51.626;7.516;2024-01-27T10:58:03;13.80;99.90
4530;DHT22;2277;51.626;7.516;2024-01-27T11:00:29;13.80;99.90
4530;DHT22;2277;51.626;7.516;2024-01-27T11:03:02;13.80;99.90
4530;DHT22;2277;51.626;7.516;2024-01-27T11:05:28;13.80;99.90
4530;DHT22;2277;51.626;7.516;2024-01-27T11:07:55;13.80;99.90
4530;DHT22;2277;51.626;7.516;2024-01-27T11:10:22;13.80;99.90
4530;DHT22;2277;51.626;7.516;2024-01-27T11:12:48;13.90;99.90
4530;DHT22;2277;51.626;7.516;2024-01-27T11:15:14;13.90;99.90
4530;DHT22;2277;51.626;7.516;2024-01-27T11:17:41;14.00;99.90
4530;DHT22;2277;51.626;7.516;2024-01-27T11:20:08;14.10;99.90
4530;DHT22;2277;51.626;7.516;2024-01-27T11:22:35;14.10;99.90
4530;DHT22;2277;51.626;7.516;2024-01-27T11:25:14;14.10;99.90
4530;DHT22;2277;51.626;7.516;2024-01-27T11:27:41;14.30;99.90
4530;DHT22;2277;51.626;7.516;2024-01-27T11:30:24;14.40;99.90
4530;DHT22;2277;51.626;7.516;2024-01-27T11:32:50;14.50;99.90
4530;DHT22;2277;51.626;7.516;2024-01-27T11:35:19;14.60;99.90
4530;DHT22;2277;51.626;7.516;2024-01-27T11:37:45;14.80;99.90
4530;DHT22;2277;51.626;7.516;2024-01-27T11:40:11;14.70;99.90
4530;DHT22;2277;51.626;7.516;2024-01-27T11:42:36;14.80;99.90
4530;DHT22;2277;51.626;7.516;2024-01-27T11:45:02;14.90;99.90
4530;DHT22;2277;51.626;7.516;2024-01-27T11:47:28;14.80;99.90
4530;DHT22;2277;51.626;7.516;2024-01-27T11:49:56;14.80;99.90
4530;DHT22;2277;51.626;7.516;2024-01-27T11:52:23;14.70;99.90
4530;DHT22;2277;51.626;7.516;2024-01-27T11:54:56;14.80;99.90
4530;DHT22;2277;51.626;7.516;2024-01-27T11:57:22;14.90;99.90
4530;DHT22;2277;51.626;7.516;2024-01-27T11:59:47;15.10;99.90
4530;DHT22;2277;51.626;7.516;2024-01-27T12:02:13;15.20;99.90
4530;DHT22;2277;51.626;7.516;2024-01-27T12:04:39;15.50;99.90
4530;DHT22;2277;51.626;7.516;2024-01-27T12:07:06;15.50;99.00
4530;DHT22;2277;51.626;7.516;2024-01-27T12:09:32;15.60;99.10
4530;DHT22;2277;51.626;7.516;2024-01-27T12:11:58;15.70;97.70
4530;DHT22;2277;51.626;7.516;2024-01-27T12:14:23;15.70;99.60
4530;DHT22;2277;51.626;7.516;2024-01-27T12:16:50;15.90;98.10
4530;DHT22;2277;51.626;7.516;2024-01-27T12:19:15;15.90;97.10
4530;DHT22;2277;51.626;7.516;2024-01-27T12:21:48;16.00;96.50
4530;DHT22;2277;51.626;7.516;2024-01-27T12:24:17;16.00;94.30
4530;DHT22;2277;51.626;7.516;2024-01-27T12:26:46;16.00;94.60
4530;DHT22;2277;51.626;7.516;2024-01-27T12:29:11;16.00;94.20
4530;DHT22;2277;51.626;7.516;2024-01-27T12:31:37;16.10;94.90
4530;DHT22;2277;51.626;7.516;2024-01-27T12:34:03;16.10;93.00
4530;DHT22;2277;51.626;7.516;2024-01-27T12:36:29;16.00;92.70
4530;DHT22;2277;51.626;7.516;2024-01-27T12:38:58;15.90;93.70
4530;DHT22;2277;51.626;7.516;2024-01-27T12:41:25;16.00;94.60
4530;DHT22;2277;51.626;7.516;2024-01-27T12:43:52;16.20;94.10
4530;DHT22;2277;51.626;7.516;2024-01-27T12:46:17;16.30;92.50
4530;DHT22;2277;51.626;7.516;2024-01-27T12:48:44;16.30;93.40
4530;DHT22;2277;51.626;7.516;2024-01-27T12:51:10;16.50;93.60
4530;DHT22;2277;51.626;7.516;2024-01-27T12:53:38;16.50;92.80
4530;DHT22;2277;51.626;7.516;2024-01-27T12:56:07;16.60;92.80
4530;DHT22;2277;51.626;7.516;2024-01-27T12:58:33;16.50;92.00
4530;DHT22;2277;51.626;7.516;2024-01-27T13:00:59;16.40;92.00
4530;DHT22;2277;51.626;7.516;2024-01-27T13:03:24;16.40;91.50
4530;DHT22;2277;51.626;7.516;2024-01-27T13:05:50;16.40;91.30
4530;DHT22;2277;51.626;7.516;2024-01-27T13:08:16;16.40;91.40
4530;DHT22;2277;51.626;7.516;2024-01-27T13:10:41;16.30;91.60
4530;DHT22;2277;51.626;7.516;2024-01-27T13:13:07;16.20;91.30
4530;DHT22;2277;51.626;7.516;2024-01-27T13:15:32;16.20;91.80
4530;DHT22;2277;51.626;7.516;2024-01-27T13:17:58;16.20;91.50
4530;DHT22;2277;51.626;7.516;2024-01-27T13:20:23;16.20;90.50
4530;DHT22;2277;51.626;7.516;2024-01-27T13:22:49;16.20;91.30
4530;DHT22;2277;51.626;7.516;2024-01-27T13:25:15;16.20;92.90
4530;DHT22;2277;51.626;7.516;2024-01-27T13:27:40;16.20;92.60
4530;DHT22;2277;51.626;7.516;2024-01-27T13:30:06;16.30;90.10
4530;DHT22;2277;51.626;7.516;2024-01-27T13:32:32;16.30;89.10
4530;DHT22;2277;51.626;7.516;2024-01-27T13:34:58;16.40;89.30
4530;DHT22;2277;51.626;7.516;2024-01-27T13:37:23;16.50;89.00
4530;DHT22;2277;51.626;7.516;2024-01-27T13:39:49;16.50;91.30
4530;DHT22;2277;51.626;7.516;2024-01-27T13:42:14;16.60;90.40
4530;DHT22;2277;51.626;7.516;2024-01-27T13:44:40;16.70;89.10
4530;DHT22;2277;51.626;7.516;2024-01-27T13:47:06;16.80;88.70
4530;DHT22;2277;51.626;7.516;2024-01-27T13:49:32;16.90;89.10
4530;DHT22;2277;51.626;7.516;2024-01-27T13:51:58;16.90;87.20
4530;DHT22;2277;51.626;7.516;2024-01-27T13:54:23;17.00;89.70
4530;DHT22;2277;51.626;7.516;2024-01-27T13:56:49;17.00;88.10
4530;DHT22;2277;51.626;7.516;2024-01-27T13:59:15;17.10;88.30
4530;DHT22;2277;51.626;7.516;2024-01-27T14:01:40;17.10;87.10
4530;DHT22;2277;51.626;7.516;2024-01-27T14:04:06;17.10;86.50
4530;DHT22;2277;51.626;7.516;2024-01-27T14:06:34;17.10;87.10
4530;DHT22;2277;51.626;7.516;2024-01-27T14:09:00;17.20;84.40
4530;DHT22;2277;51.626;7.516;2024-01-27T14:11:27;17.10;84.50
4530;DHT22;2277;51.626;7.516;2024-01-27T14:13:53;17.20;85.50
4530;DHT22;2277;51.626;7.516;2024-01-27T14:16:18;17.20;84.80
4530;DHT22;2277;51.626;7.516;2024-01-27T14:18:44;17.30;85.00
4530;DHT22;2277;51.626;7.516;2024-01-27T14:21:09;17.20;82.80
4530;DHT22;2277;51.626;7.516;2024-01-27T14:23:36;17.20;83.70
4530;DHT22;2277;51.626;7.516;2024-01-27T14:26:03;17.00;82.50
4530;DHT22;2277;51.626;7.516;2024-01-27T14:28:29;16.90;83.90
4530;DHT22;2277;51.626;7.516;2024-01-27T14:30:55;16.80;85.00
4530;DHT22;2277;51.626;7.516;2024-01-27T14:33:20;16.70;83.40
4530;DHT22;2277;51.626;7.516;2024-01-27T14:35:47;16.60;82.50
4530;DHT22;2277;51.626;7.516;2024-01-27T14:38:13;16.50;83.30
4530;DHT22;2277;51.626;7.516;2024-01-27T14:40:39;16.50;84.50
4530;DHT22;2277;51.626;7.516;2024-01-27T14:43:05;16.40;81.10
4530;DHT22;2277;51.626;7.516;2024-01-27T14:45:35;16.30;83.10
4530;DHT22;2277;51.626;7.516;2024-01-27T14:48:01;16.10;85.00
4530;DHT22;2277;51.626;7.516;2024-01-27T14:50:27;16.10;86.00
4530;DHT22;2277;51.626;7.516;2024-01-27T14:52:53;15.90;83.70
4530;DHT22;2277;51.626;7.516;2024-01-27T14:55:19;15.70;83.90
4530;DHT22;2277;51.626;7.516;2024-01-27T14:57:45;15.40;84.70
4530;DHT22;2277;51.626;7.516;2024-01-27T15:00:10;15.30;86.10
4530;DHT22;2277;51.626;7.516;2024-01-27T15:02:38;15.10;87.70
4530;DHT22;2277;51.626;7.516;2024-01-27T15:05:04;15.10;87.10
4530;DHT22;2277;51.626;7.516;2024-01-27T15:07:31;15.00;88.30
4530;DHT22;2277;51.626;7.516;2024-01-27T15:09:56;14.90;88.20
4530;DHT22;2277;51.626;7.516;2024-01-27T15:12:22;14.70;88.10
4530;DHT22;2277;51.626;7.516;2024-01-27T15:14:49;14.70;89.00
4530;DHT22;2277;51.626;7.516;2024-01-27T15:17:15;14.60;89.30
4530;DHT22;2277;51.626;7.516;2024-01-27T15:19:40;14.50;89.80
4530;DHT22;2277;51.626;7.516;2024-01-27T15:22:06;14.40;90.10
4530;DHT22;2277;51.626;7.516;2024-01-27T15:24:31;14.50;90.70
4530;DHT22;2277;51.626;7.516;2024-01-27T15:27:00;14.30;90.90
4530;DHT22;2277;51.626;7.516;2024-01-27T15:29:26;14.10;90.70
4530;DHT22;2277;51.626;7.516;2024-01-27T15:31:51;14.00;91.30
4530;DHT22;2277;51.626;7.516;2024-01-27T15:34:17;14.00;91.00
4530;DHT22;2277;51.626;7.516;2024-01-27T15:36:42;14.00;90.80
4530;DHT22;2277;51.626;7.516;2024-01-27T15:39:09;13.90;91.20
4530;DHT22;2277;51.626;7.516;2024-01-27T15:41:36;13.80;90.40
4530;DHT22;2277;51.626;7.516;2024-01-27T15:44:01;13.60;91.40
4530;DHT22;2277;51.626;7.516;2024-01-27T15:46:29;13.40;91.70
4530;DHT22;2277;51.626;7.516;2024-01-27T15:48:54;13.30;92.00
4530;DHT22;2277;51.626;7.516;2024-01-27T15:51:20;13.10;92.00
4530;DHT22;2277;51.626;7.516;2024-01-27T15:53:46;13.00;92.60
4530;DHT22;2277;51.626;7.516;2024-01-27T15:56:11;12.90;93.00
4530;DHT22;2277;51.626;7.516;2024-01-27T15:58:37;12.90;93.40
4530;DHT22;2277;51.626;7.516;2024-01-27T16:01:02;12.70;93.40
4530;DHT22;2277;51.626;7.516;2024-01-27T16:03:28;12.60;93.80
4530;DHT22;2277;51.626;7.516;2024-01-27T16:05:54;12.30;94.10